sensor_id;sensor_type;location;lat;lon;timestamp;P1;durP1;ratioP1;P2;durP2;ratioP2
5058;SDS011;2548;52.050;11.036;2023-06-22T00:02:21;19.17;;;13.10;;
5058;SDS011;2548;52.050;11.036;2023-06-22T00:04:49;15.00;;;13.60;;
5058;SDS011;2548;52.050;11.036;2023-06-22T00:07:16;15.40;;;13.90;;
5058;SDS011;2548;52.050;11.036;2023-06-22T00:09:43;20.93;;;13.20;;
5058;SDS011;2548;52.050;11.036;2023-06-22T00:12:11;14.63;;;13.17;;
5058;SDS011;2548;52.050;11.036;2023-06-22T00:14:38;13.63;;;12.23;;
5058;SDS011;2548;52.050;11.036;2023-06-22T00:17:07;12.63;;;11.50;;
5058;SDS011;2548;52.050;11.036;2023-06-22T00:19:35;14.07;;;12.77;;
5058;SDS011;2548;52.050;11.036;2023-06-22T00:22:06;18.40;;;12.20;;
5058;SDS011;2548;52.050;11.036;2023-06-22T00:24:33;14.20;;;12.90;;
5058;SDS011;2548;52.050;11.036;2023-06-22T00:27:00;14.27;;;12.47;;
5058;SDS011;2548;52.050;11.036;2023-06-22T00:29:29;15.40;;;13.80;;
5058;SDS011;2548;52.050;11.036;2023-06-22T00:31:57;18.30;;;16.43;;
5058;SDS011;2548;52.050;11.036;2023-06-22T00:34:25;15.53;;;14.17;;
5058;SDS011;2548;52.050;11.036;2023-06-22T00:36:53;15.73;;;14.00;;
5058;SDS011;2548;52.050;11.036;2023-06-22T00:39:20;15.30;;;13.70;;
5058;SDS011;2548;52.050;11.036;2023-06-22T00:41:49;16.07;;;14.00;;
5058;SDS011;2548;52.050;11.036;2023-06-22T00:44:17;15.07;;;13.57;;
5058;SDS011;2548;52.050;11.036;2023-06-22T00:46:44;13.80;;;12.50;;
5058;SDS011;2548;52.050;11.036;2023-06-22T00:49:12;14.27;;;11.97;;
5058;SDS011;2548;52.050;11.036;2023-06-22T00:51:42;14.83;;;13.43;;
5058;SDS011;2548;52.050;11.036;2023-06-22T00:54:11;17.57;;;15.17;;
5058;SDS011;2548;52.050;11.036;2023-06-22T00:56:39;16.07;;;14.60;;
5058;SDS011;2548;52.050;11.036;2023-06-22T00:59:08;15.80;;;14.27;;
5058;SDS011;2548;52.050;11.036;2023-06-22T01:01:38;16.97;;;13.97;;
5058;SDS011;2548;52.050;11.036;2023-06-22T01:04:06;15.77;;;13.87;;
5058;SDS011;2548;52.050;11.036;2023-06-22T01:06:35;14.17;;;12.57;;
5058;SDS011;2548;52.050;11.036;2023-06-22T01:09:11;13.80;;;12.10;;
5058;SDS011;2548;52.050;11.036;2023-06-22T01:11:42;13.57;;;12.27;;
5058;SDS011;2548;52.050;11.036;2023-06-22T01:14:18;14.60;;;13.10;;
5058;SDS011;2548;52.050;11.036;2023-06-22T01:16:50;16.47;;;13.50;;
5058;SDS011;2548;52.050;11.036;2023-06-22T01:19:26;14.87;;;13.40;;
5058;SDS011;2548;52.050;11.036;2023-06-22T01:22:02;12.90;;;11.80;;
5058;SDS011;2548;52.050;11.036;2023-06-22T01:24:33;15.50;;;10.40;;
5058;SDS011;2548;52.050;11.036;2023-06-22T01:27:14;13.83;;;11.20;;
5058;SDS011;2548;52.050;11.036;2023-06-22T01:29:55;16.73;;;11.93;;
5058;SDS011;2548;52.050;11.036;2023-06-22T01:32:26;19.77;;;11.53;;
5058;SDS011;2548;52.050;11.036;2023-06-22T01:34:57;13.03;;;11.40;;
5058;SDS011;2548;52.050;11.036;2023-06-22T01:37:26;14.67;;;11.73;;
5058;SDS011;2548;52.050;11.036;2023-06-22T01:39:57;16.73;;;11.33;;
5058;SDS011;2548;52.050;11.036;2023-06-22T01:42:26;11.93;;;10.00;;
5058;SDS011;2548;52.050;11.036;2023-06-22T01:44:55;18.60;;;11.30;;
5058;SDS011;2548;52.050;11.036;2023-06-22T01:47:23;18.30;;;10.47;;
5058;SDS011;2548;52.050;11.036;2023-06-22T01:49:51;19.43;;;10.63;;
5058;SDS011;2548;52.050;11.036;2023-06-22T01:52:20;23.87;;;13.40;;
5058;SDS011;2548;52.050;11.036;2023-06-22T01:54:47;13.30;;;11.63;;
5058;SDS011;2548;52.050;11.036;2023-06-22T01:57:15;20.50;;;13.40;;
5058;SDS011;2548;52.050;11.036;2023-06-22T01:59:45;21.93;;;12.93;;
5058;SDS011;2548;52.050;11.036;2023-06-22T02:02:18;19.30;;;13.90;;
5058;SDS011;2548;52.050;11.036;2023-06-22T02:04:54;23.83;;;13.37;;
5058;SDS011;2548;52.050;11.036;2023-06-22T02:07:28;18.13;;;12.83;;
5058;SDS011;2548;52.050;11.036;2023-06-22T02:10:01;13.43;;;12.03;;
5058;SDS011;2548;52.050;11.036;2023-06-22T02:12:30;19.47;;;12.43;;
5058;SDS011;2548;52.050;11.036;2023-06-22T02:15:00;16.30;;;11.93;;
5058;SDS011;2548;52.050;11.036;2023-06-22T02:17:30;24.63;;;12.87;;
5058;SDS011;2548;52.050;11.036;2023-06-22T02:20:01;17.83;;;13.30;;
5058;SDS011;2548;52.050;11.036;2023-06-22T02:22:35;17.35;;;14.73;;
5058;SDS011;2548;52.050;11.036;2023-06-22T02:25:02;26.53;;;13.40;;
5058;SDS011;2548;52.050;11.036;2023-06-22T02:27:30;25.80;;;14.30;;
5058;SDS011;2548;52.050;11.036;2023-06-22T02:29:58;27.67;;;12.33;;
5058;SDS011;2548;52.050;11.036;2023-06-22T02:32:25;26.70;;;13.37;;
5058;SDS011;2548;52.050;11.036;2023-06-22T02:34:54;15.70;;;12.50;;
5058;SDS011;2548;52.050;11.036;2023-06-22T02:37:23;21.23;;;12.83;;
5058;SDS011;2548;52.050;11.036;2023-06-22T02:39:55;28.43;;;16.30;;
5058;SDS011;2548;52.050;11.036;2023-06-22T02:42:23;14.60;;;13.10;;
5058;SDS011;2548;52.050;11.036;2023-06-22T02:44:50;19.80;;;11.40;;
5058;SDS011;2548;52.050;11.036;2023-06-22T02:47:19;17.60;;;10.73;;
5058;SDS011;2548;52.050;11.036;2023-06-22T02:49:47;14.90;;;12.10;;
5058;SDS011;2548;52.050;11.036;2023-06-22T02:52:17;12.83;;;10.90;;
5058;SDS011;2548;52.050;11.036;2023-06-22T02:54:44;16.73;;;11.67;;
5058;SDS011;2548;52.050;11.036;2023-06-22T02:57:13;13.70;;;12.20;;
5058;SDS011;2548;52.050;11.036;2023-06-22T02:59:41;18.43;;;11.07;;
5058;SDS011;2548;52.050;11.036;2023-06-22T03:02:11;10.23;;;9.03;;
5058;SDS011;2548;52.050;11.036;2023-06-22T03:04:39;10.60;;;9.43;;
5058;SDS011;2548;52.050;11.036;2023-06-22T03:07:07;15.83;;;10.27;;
5058;SDS011;2548;52.050;11.036;2023-06-22T03:09:36;15.70;;;9.77;;
5058;SDS011;2548;52.050;11.036;2023-06-22T03:12:04;17.47;;;10.17;;
5058;SDS011;2548;52.050;11.036;2023-06-22T03:14:48;10.00;;;9.10;;
5058;SDS011;2548;52.050;11.036;2023-06-22T03:17:16;9.97;;;8.97;;
5058;SDS011;2548;52.050;11.036;2023-06-22T03:19:43;12.50;;;8.70;;
5058;SDS011;2548;52.050;11.036;2023-06-22T03:22:10;11.90;;;7.80;;
5058;SDS011;2548;52.050;11.036;2023-06-22T03:24:39;9.53;;;8.53;;
5058;SDS011;2548;52.050;11.036;2023-06-22T03:27:07;9.10;;;8.37;;
5058;SDS011;2548;52.050;11.036;2023-06-22T03:29:34;13.50;;;10.77;;
5058;SDS011;2548;52.050;11.036;2023-06-22T03:32:02;15.53;;;10.60;;
5058;SDS011;2548;52.050;11.036;2023-06-22T03:34:31;14.90;;;9.83;;
5058;SDS011;2548;52.050;11.036;2023-06-22T03:37:00;12.10;;;9.13;;
5058;SDS011;2548;52.050;11.036;2023-06-22T03:39:27;12.93;;;11.63;;
5058;SDS011;2548;52.050;11.036;2023-06-22T03:41:56;15.13;;;13.07;;
5058;SDS011;2548;52.050;11.036;2023-06-22T03:44:24;19.87;;;15.90;;
5058;SDS011;2548;52.050;11.036;2023-06-22T03:46:51;25.87;;;16.50;;
5058;SDS011;2548;52.050;11.036;2023-06-22T03:49:19;16.03;;;14.43;;
5058;SDS011;2548;52.050;11.036;2023-06-22T03:51:46;17.90;;;13.97;;
5058;SDS011;2548;52.050;11.036;2023-06-22T03:54:14;24.90;;;15.77;;
5058;SDS011;2548;52.050;11.036;2023-06-22T03:56:41;19.73;;;16.20;;
5058;SDS011;2548;52.050;11.036;2023-06-22T03:59:10;23.20;;;16.87;;
5058;SDS011;2548;52.050;11.036;2023-06-22T04:01:37;21.30;;;15.93;;
5058;SDS011;2548;52.050;11.036;2023-06-22T04:04:05;25.67;;;16.50;;
5058;SDS011;2548;52.050;11.036;2023-06-22T04:06:32;29.83;;;15.60;;
5058;SDS011;2548;52.050;11.036;2023-06-22T04:09:00;19.80;;;14.53;;
5058;SDS011;2548;52.050;11.036;2023-06-22T04:11:28;18.07;;;14.43;;
5058;SDS011;2548;52.050;11.036;2023-06-22T04:13:56;17.90;;;14.23;;
5058;SDS011;2548;52.050;11.036;2023-06-22T04:16:24;31.80;;;16.10;;
5058;SDS011;2548;52.050;11.036;2023-06-22T04:18:52;17.37;;;14.97;;
5058;SDS011;2548;52.050;11.036;2023-06-22T04:21:19;21.30;;;16.17;;
5058;SDS011;2548;52.050;11.036;2023-06-22T04:23:47;24.03;;;16.80;;
5058;SDS011;2548;52.050;11.036;2023-06-22T04:26:14;20.07;;;15.83;;
5058;SDS011;2548;52.050;11.036;2023-06-22T04:28:42;25.70;;;15.33;;
5058;SDS011;2548;52.050;11.036;2023-06-22T04:31:15;21.70;;;16.60;;
5058;SDS011;2548;52.050;11.036;2023-06-22T04:33:44;24.13;;;16.13;;
5058;SDS011;2548;52.050;11.036;2023-06-22T04:36:12;18.23;;;15.20;;
5058;SDS011;2548;52.050;11.036;2023-06-22T04:38:40;22.70;;;16.23;;
5058;SDS011;2548;52.050;11.036;2023-06-22T04:41:10;21.63;;;14.90;;
5058;SDS011;2548;52.050;11.036;2023-06-22T04:43:49;20.70;;;15.43;;
5058;SDS011;2548;52.050;11.036;2023-06-22T04:46:25;25.03;;;15.50;;
5058;SDS011;2548;52.050;11.036;2023-06-22T04:48:54;26.77;;;15.90;;
5058;SDS011;2548;52.050;11.036;2023-06-22T04:51:22;25.77;;;15.00;;
5058;SDS011;2548;52.050;11.036;2023-06-22T04:53:55;20.67;;;15.73;;
5058;SDS011;2548;52.050;11.036;2023-06-22T04:56:30;22.30;;;15.60;;
5058;SDS011;2548;52.050;11.036;2023-06-22T04:58:58;21.70;;;15.40;;
5058;SDS011;2548;52.050;11.036;2023-06-22T05:01:25;21.50;;;14.23;;
5058;SDS011;2548;52.050;11.036;2023-06-22T05:03:55;24.63;;;14.37;;
5058;SDS011;2548;52.050;11.036;2023-06-22T05:06:23;17.40;;;14.43;;
5058;SDS011;2548;52.050;11.036;2023-06-22T05:08:52;22.80;;;15.10;;
5058;SDS011;2548;52.050;11.036;2023-06-22T05:11:23;23.40;;;16.07;;
5058;SDS011;2548;52.050;11.036;2023-06-22T05:13:51;22.23;;;15.27;;
5058;SDS011;2548;52.050;11.036;2023-06-22T05:16:20;29.73;;;13.90;;
5058;SDS011;2548;52.050;11.036;2023-06-22T05:18:52;19.07;;;15.37;;
5058;SDS011;2548;52.050;11.036;2023-06-22T05:21:22;18.43;;;15.50;;
5058;SDS011;2548;52.050;11.036;2023-06-22T05:23:51;21.13;;;16.30;;
5058;SDS011;2548;52.050;11.036;2023-06-22T05:26:19;18.50;;;15.20;;
5058;SDS011;2548;52.050;11.036;2023-06-22T05:28:47;22.60;;;15.37;;
5058;SDS011;2548;52.050;11.036;2023-06-22T05:31:15;23.97;;;14.87;;
5058;SDS011;2548;52.050;11.036;2023-06-22T05:33:45;20.73;;;15.57;;
5058;SDS011;2548;52.050;11.036;2023-06-22T05:36:15;21.87;;;15.10;;
5058;SDS011;2548;52.050;11.036;2023-06-22T05:38:43;19.43;;;15.77;;
5058;SDS011;2548;52.050;11.036;2023-06-22T05:41:10;16.17;;;14.50;;
5058;SDS011;2548;52.050;11.036;2023-06-22T05:43:38;24.93;;;13.20;;
5058;SDS011;2548;52.050;11.036;2023-06-22T05:46:11;15.27;;;13.63;;
5058;SDS011;2548;52.050;11.036;2023-06-22T05:48:39;15.67;;;14.10;;
5058;SDS011;2548;52.050;11.036;2023-06-22T05:51:06;22.03;;;14.20;;
5058;SDS011;2548;52.050;11.036;2023-06-22T05:53:36;17.00;;;14.77;;
5058;SDS011;2548;52.050;11.036;2023-06-22T05:56:03;20.00;;;13.87;;
5058;SDS011;2548;52.050;11.036;2023-06-22T05:58:31;18.23;;;13.20;;
5058;SDS011;2548;52.050;11.036;2023-06-22T06:00:58;16.73;;;14.40;;
5058;SDS011;2548;52.050;11.036;2023-06-22T06:03:29;16.67;;;15.07;;
5058;SDS011;2548;52.050;11.036;2023-06-22T06:06:00;15.10;;;13.70;;
5058;SDS011;2548;52.050;11.036;2023-06-22T06:08:31;21.97;;;14.60;;
5058;SDS011;2548;52.050;11.036;2023-06-22T06:11:03;17.23;;;13.93;;
5058;SDS011;2548;52.050;11.036;2023-06-22T06:13:35;17.80;;;15.97;;
5058;SDS011;2548;52.050;11.036;2023-06-22T06:16:03;17.70;;;15.97;;
5058;SDS011;2548;52.050;11.036;2023-06-22T06:18:34;16.07;;;14.47;;
5058;SDS011;2548;52.050;11.036;2023-06-22T06:21:10;18.80;;;16.37;;
5058;SDS011;2548;52.050;11.036;2023-06-22T06:23:38;22.10;;;16.03;;
5058;SDS011;2548;52.050;11.036;2023-06-22T06:26:07;23.10;;;16.80;;
5058;SDS011;2548;52.050;11.036;2023-06-22T06:28:38;14.93;;;13.33;;
5058;SDS011;2548;52.050;11.036;2023-06-22T06:31:07;16.37;;;14.67;;
5058;SDS011;2548;52.050;11.036;2023-06-22T06:33:34;18.37;;;15.50;;
5058;SDS011;2548;52.050;11.036;2023-06-22T06:36:03;18.60;;;16.70;;
5058;SDS011;2548;52.050;11.036;2023-06-22T06:38:32;15.87;;;14.47;;
5058;SDS011;2548;52.050;11.036;2023-06-22T06:41:05;17.13;;;15.40;;
5058;SDS011;2548;52.050;11.036;2023-06-22T06:43:34;19.30;;;17.40;;
5058;SDS011;2548;52.050;11.036;2023-06-22T06:46:02;20.20;;;18.10;;
5058;SDS011;2548;52.050;11.036;2023-06-22T06:48:30;18.60;;;16.60;;
5058;SDS011;2548;52.050;11.036;2023-06-22T06:50:58;17.20;;;15.60;;
5058;SDS011;2548;52.050;11.036;2023-06-22T06:53:28;20.37;;;16.03;;
5058;SDS011;2548;52.050;11.036;2023-06-22T06:55:59;23.67;;;16.80;;
5058;SDS011;2548;52.050;11.036;2023-06-22T06:58:32;18.90;;;16.57;;
5058;SDS011;2548;52.050;11.036;2023-06-22T07:01:00;21.43;;;15.67;;
5058;SDS011;2548;52.050;11.036;2023-06-22T07:03:31;18.43;;;15.00;;
5058;SDS011;2548;52.050;11.036;2023-06-22T07:05:59;19.50;;;17.03;;
5058;SDS011;2548;52.050;11.036;2023-06-22T07:08:26;18.97;;;16.97;;
5058;SDS011;2548;52.050;11.036;2023-06-22T07:10:54;17.70;;;15.63;;
5058;SDS011;2548;52.050;11.036;2023-06-22T07:13:22;18.20;;;16.50;;
5058;SDS011;2548;52.050;11.036;2023-06-22T07:15:51;20.53;;;18.53;;
5058;SDS011;2548;52.050;11.036;2023-06-22T07:18:19;24.97;;;17.60;;
5058;SDS011;2548;52.050;11.036;2023-06-22T07:20:49;32.70;;;18.50;;
5058;SDS011;2548;52.050;11.036;2023-06-22T07:23:17;19.47;;;16.77;;
5058;SDS011;2548;52.050;11.036;2023-06-22T07:25:47;22.30;;;18.37;;
5058;SDS011;2548;52.050;11.036;2023-06-22T07:28:16;18.13;;;16.33;;
5058;SDS011;2548;52.050;11.036;2023-06-22T07:30:45;19.93;;;18.00;;
5058;SDS011;2548;52.050;11.036;2023-06-22T07:33:15;21.23;;;19.03;;
5058;SDS011;2548;52.050;11.036;2023-06-22T07:35:43;20.53;;;18.50;;
5058;SDS011;2548;52.050;11.036;2023-06-22T07:38:11;20.10;;;18.03;;
5058;SDS011;2548;52.050;11.036;2023-06-22T07:40:41;20.33;;;18.27;;
5058;SDS011;2548;52.050;11.036;2023-06-22T07:43:10;19.70;;;17.63;;
5058;SDS011;2548;52.050;11.036;2023-06-22T07:45:43;19.50;;;17.50;;
5058;SDS011;2548;52.050;11.036;2023-06-22T07:48:19;21.70;;;19.57;;
5058;SDS011;2548;52.050;11.036;2023-06-22T07:50:48;23.23;;;19.93;;
5058;SDS011;2548;52.050;11.036;2023-06-22T07:53:16;21.00;;;18.90;;
5058;SDS011;2548;52.050;11.036;2023-06-22T07:55:50;20.80;;;18.80;;
5058;SDS011;2548;52.050;11.036;2023-06-22T07:58:21;22.53;;;20.23;;
5058;SDS011;2548;52.050;11.036;2023-06-22T08:00:49;21.90;;;19.70;;
5058;SDS011;2548;52.050;11.036;2023-06-22T08:03:17;19.27;;;17.37;;
5058;SDS011;2548;52.050;11.036;2023-06-22T08:05:50;27.90;;;18.60;;
5058;SDS011;2548;52.050;11.036;2023-06-22T08:08:18;24.20;;;17.80;;
5058;SDS011;2548;52.050;11.036;2023-06-22T08:10:45;21.47;;;19.03;;
5058;SDS011;2548;52.050;11.036;2023-06-22T08:13:13;21.00;;;18.97;;
5058;SDS011;2548;52.050;11.036;2023-06-22T08:15:41;19.60;;;17.80;;
5058;SDS011;2548;52.050;11.036;2023-06-22T08:18:09;22.57;;;20.30;;
5058;SDS011;2548;52.050;11.036;2023-06-22T08:20:44;21.77;;;19.43;;
5058;SDS011;2548;52.050;11.036;2023-06-22T08:23:12;21.30;;;19.30;;
5058;SDS011;2548;52.050;11.036;2023-06-22T08:25:46;21.73;;;19.67;;
5058;SDS011;2548;52.050;11.036;2023-06-22T08:28:37;21.77;;;19.47;;
5058;SDS011;2548;52.050;11.036;2023-06-22T08:31:05;21.53;;;18.30;;
5058;SDS011;2548;52.050;11.036;2023-06-22T08:33:37;21.33;;;19.27;;
5058;SDS011;2548;52.050;11.036;2023-06-22T08:36:09;22.33;;;20.10;;
5058;SDS011;2548;52.050;11.036;2023-06-22T08:38:36;20.53;;;18.53;;
5058;SDS011;2548;52.050;11.036;2023-06-22T08:41:04;21.73;;;19.53;;
5058;SDS011;2548;52.050;11.036;2023-06-22T08:43:32;19.40;;;17.40;;
5058;SDS011;2548;52.050;11.036;2023-06-22T08:46:00;20.23;;;18.43;;
5058;SDS011;2548;52.050;11.036;2023-06-22T08:48:30;19.83;;;18.03;;
5058;SDS011;2548;52.050;11.036;2023-06-22T08:50:58;20.87;;;18.97;;
5058;SDS011;2548;52.050;11.036;2023-06-22T08:53:31;23.63;;;20.10;;
5058;SDS011;2548;52.050;11.036;2023-06-22T08:56:01;22.73;;;20.43;;
5058;SDS011;2548;52.050;11.036;2023-06-22T08:58:34;19.07;;;17.30;;
5058;SDS011;2548;52.050;11.036;2023-06-22T09:01:08;19.90;;;18.20;;
5058;SDS011;2548;52.050;11.036;2023-06-22T09:03:36;20.63;;;18.67;;
5058;SDS011;2548;52.050;11.036;2023-06-22T09:06:04;20.97;;;18.80;;
5058;SDS011;2548;52.050;11.036;2023-06-22T09:08:36;23.47;;;21.00;;
5058;SDS011;2548;52.050;11.036;2023-06-22T09:11:07;22.63;;;20.43;;
5058;SDS011;2548;52.050;11.036;2023-06-22T09:13:34;22.60;;;20.13;;
5058;SDS011;2548;52.050;11.036;2023-06-22T09:16:02;24.40;;;19.97;;
5058;SDS011;2548;52.050;11.036;2023-06-22T09:18:30;22.77;;;20.37;;
5058;SDS011;2548;52.050;11.036;2023-06-22T09:20:58;22.43;;;20.27;;
5058;SDS011;2548;52.050;11.036;2023-06-22T09:23:25;23.90;;;20.00;;
5058;SDS011;2548;52.050;11.036;2023-06-22T09:25:54;25.20;;;19.03;;
5058;SDS011;2548;52.050;11.036;2023-06-22T09:31:02;25.90;;;19.80;;
5058;SDS011;2548;52.050;11.036;2023-06-22T09:33:29;22.37;;;18.80;;
5058;SDS011;2548;52.050;11.036;2023-06-22T09:35:57;21.83;;;19.87;;
5058;SDS011;2548;52.050;11.036;2023-06-22T09:38:34;22.60;;;20.30;;
5058;SDS011;2548;52.050;11.036;2023-06-22T09:41:03;23.67;;;21.37;;
5058;SDS011;2548;52.050;11.036;2023-06-22T09:43:32;21.47;;;19.27;;
5058;SDS011;2548;52.050;11.036;2023-06-22T09:46:02;22.50;;;20.23;;
5058;SDS011;2548;52.050;11.036;2023-06-22T09:48:29;21.40;;;19.30;;
5058;SDS011;2548;52.050;11.036;2023-06-22T09:51:03;20.00;;;18.17;;
5058;SDS011;2548;52.050;11.036;2023-06-22T09:53:31;19.70;;;18.00;;
5058;SDS011;2548;52.050;11.036;2023-06-22T09:56:05;20.77;;;18.87;;
5058;SDS011;2548;52.050;11.036;2023-06-22T09:58:33;21.70;;;19.60;;
5058;SDS011;2548;52.050;11.036;2023-06-22T10:01:06;19.53;;;17.63;;
5058;SDS011;2548;52.050;11.036;2023-06-22T10:03:34;21.30;;;18.90;;
5058;SDS011;2548;52.050;11.036;2023-06-22T10:06:02;16.90;;;15.20;;
5058;SDS011;2548;52.050;11.036;2023-06-22T10:08:30;21.33;;;19.00;;
5058;SDS011;2548;52.050;11.036;2023-06-22T10:10:57;21.30;;;19.13;;
5058;SDS011;2548;52.050;11.036;2023-06-22T10:13:26;20.37;;;18.33;;
5058;SDS011;2548;52.050;11.036;2023-06-22T10:15:54;16.60;;;15.03;;
5058;SDS011;2548;52.050;11.036;2023-06-22T10:18:22;19.30;;;17.37;;
5058;SDS011;2548;52.050;11.036;2023-06-22T10:20:50;19.70;;;17.67;;
5058;SDS011;2548;52.050;11.036;2023-06-22T10:23:18;19.10;;;17.37;;
5058;SDS011;2548;52.050;11.036;2023-06-22T10:25:46;23.50;;;16.70;;
5058;SDS011;2548;52.050;11.036;2023-06-22T10:28:20;21.00;;;16.70;;
5058;SDS011;2548;52.050;11.036;2023-06-22T10:30:49;18.57;;;16.87;;
5058;SDS011;2548;52.050;11.036;2023-06-22T10:33:17;18.57;;;16.77;;
5058;SDS011;2548;52.050;11.036;2023-06-22T10:35:44;19.50;;;17.57;;
5058;SDS011;2548;52.050;11.036;2023-06-22T10:38:12;19.77;;;17.97;;
5058;SDS011;2548;52.050;11.036;2023-06-22T10:40:45;18.03;;;16.43;;
5058;SDS011;2548;52.050;11.036;2023-06-22T10:43:13;19.23;;;17.43;;
5058;SDS011;2548;52.050;11.036;2023-06-22T10:45:40;19.50;;;17.60;;
5058;SDS011;2548;52.050;11.036;2023-06-22T10:48:09;17.13;;;15.70;;
5058;SDS011;2548;52.050;11.036;2023-06-22T10:50:43;17.90;;;16.20;;
5058;SDS011;2548;52.050;11.036;2023-06-22T10:53:14;18.57;;;16.97;;
5058;SDS011;2548;52.050;11.036;2023-06-22T10:55:41;17.50;;;15.93;;
5058;SDS011;2548;52.050;11.036;2023-06-22T10:58:09;18.30;;;16.60;;
5058;SDS011;2548;52.050;11.036;2023-06-22T11:00:37;18.63;;;16.63;;
5058;SDS011;2548;52.050;11.036;2023-06-22T11:03:11;17.73;;;16.17;;
5058;SDS011;2548;52.050;11.036;2023-06-22T11:05:39;16.70;;;15.00;;
5058;SDS011;2548;52.050;11.036;2023-06-22T11:08:13;21.20;;;17.67;;
5058;SDS011;2548;52.050;11.036;2023-06-22T11:10:41;18.77;;;16.97;;
5058;SDS011;2548;52.050;11.036;2023-06-22T11:13:09;17.80;;;16.20;;
5058;SDS011;2548;52.050;11.036;2023-06-22T11:15:37;16.57;;;15.00;;
5058;SDS011;2548;52.050;11.036;2023-06-22T11:18:06;21.77;;;19.77;;
5058;SDS011;2548;52.050;11.036;2023-06-22T11:20:35;20.50;;;17.00;;
5058;SDS011;2548;52.050;11.036;2023-06-22T11:23:04;18.67;;;15.10;;
5058;SDS011;2548;52.050;11.036;2023-06-22T11:25:33;16.93;;;15.33;;
5058;SDS011;2548;52.050;11.036;2023-06-22T11:28:04;16.70;;;15.20;;
5058;SDS011;2548;52.050;11.036;2023-06-22T11:30:32;15.23;;;14.00;;
5058;SDS011;2548;52.050;11.036;2023-06-22T11:32:59;17.20;;;15.30;;
5058;SDS011;2548;52.050;11.036;2023-06-22T11:35:27;13.77;;;12.73;;
5058;SDS011;2548;52.050;11.036;2023-06-22T11:37:56;16.43;;;14.80;;
5058;SDS011;2548;52.050;11.036;2023-06-22T11:40:24;18.37;;;14.93;;
5058;SDS011;2548;52.050;11.036;2023-06-22T11:42:52;13.83;;;12.63;;
5058;SDS011;2548;52.050;11.036;2023-06-22T11:45:19;14.83;;;13.63;;
5058;SDS011;2548;52.050;11.036;2023-06-22T11:47:47;12.63;;;11.50;;
5058;SDS011;2548;52.050;11.036;2023-06-22T11:50:15;14.07;;;12.77;;
5058;SDS011;2548;52.050;11.036;2023-06-22T11:52:42;12.87;;;11.63;;
5058;SDS011;2548;52.050;11.036;2023-06-22T11:55:11;15.23;;;13.83;;
5058;SDS011;2548;52.050;11.036;2023-06-22T11:57:54;13.30;;;12.10;;
5058;SDS011;2548;52.050;11.036;2023-06-22T12:00:25;13.73;;;12.63;;
5058;SDS011;2548;52.050;11.036;2023-06-22T12:02:53;14.20;;;13.00;;
5058;SDS011;2548;52.050;11.036;2023-06-22T12:05:24;15.07;;;13.67;;
5058;SDS011;2548;52.050;11.036;2023-06-22T12:07:54;15.33;;;14.03;;
5058;SDS011;2548;52.050;11.036;2023-06-22T12:10:28;14.80;;;13.27;;
5058;SDS011;2548;52.050;11.036;2023-06-22T12:13:00;17.27;;;15.57;;
5058;SDS011;2548;52.050;11.036;2023-06-22T12:15:27;20.53;;;13.90;;
5058;SDS011;2548;52.050;11.036;2023-06-22T12:17:55;14.27;;;13.17;;
5058;SDS011;2548;52.050;11.036;2023-06-22T12:20:23;15.83;;;14.33;;
5058;SDS011;2548;52.050;11.036;2023-06-22T12:23:08;15.43;;;14.00;;
5058;SDS011;2548;52.050;11.036;2023-06-22T12:25:40;16.30;;;14.80;;
5058;SDS011;2548;52.050;11.036;2023-06-22T12:28:08;15.70;;;14.40;;
5058;SDS011;2548;52.050;11.036;2023-06-22T12:30:35;16.37;;;14.87;;
5058;SDS011;2548;52.050;11.036;2023-06-22T12:33:05;16.13;;;13.53;;
5058;SDS011;2548;52.050;11.036;2023-06-22T12:35:35;13.80;;;12.70;;
5058;SDS011;2548;52.050;11.036;2023-06-22T12:38:03;12.23;;;11.23;;
5058;SDS011;2548;52.050;11.036;2023-06-22T12:40:32;13.53;;;12.13;;
5058;SDS011;2548;52.050;11.036;2023-06-22T12:43:04;13.30;;;12.10;;
5058;SDS011;2548;52.050;11.036;2023-06-22T12:45:32;13.70;;;11.60;;
5058;SDS011;2548;52.050;11.036;2023-06-22T12:48:00;11.70;;;10.70;;
5058;SDS011;2548;52.050;11.036;2023-06-22T12:50:28;12.33;;;11.33;;
5058;SDS011;2548;52.050;11.036;2023-06-22T12:52:55;13.67;;;12.47;;
5058;SDS011;2548;52.050;11.036;2023-06-22T12:55:27;10.53;;;9.73;;
5058;SDS011;2548;52.050;11.036;2023-06-22T12:58:02;12.27;;;11.37;;
5058;SDS011;2548;52.050;11.036;2023-06-22T13:00:31;12.13;;;10.97;;
5058;SDS011;2548;52.050;11.036;2023-06-22T13:02:59;14.00;;;11.43;;
5058;SDS011;2548;52.050;11.036;2023-06-22T13:05:26;11.97;;;11.07;;
5058;SDS011;2548;52.050;11.036;2023-06-22T13:07:54;12.53;;;11.37;;
5058;SDS011;2548;52.050;11.036;2023-06-22T13:10:22;12.60;;;11.40;;
5058;SDS011;2548;52.050;11.036;2023-06-22T13:12:52;12.40;;;11.30;;
5058;SDS011;2548;52.050;11.036;2023-06-22T13:15:27;12.23;;;11.20;;
5058;SDS011;2548;52.050;11.036;2023-06-22T13:18:01;13.03;;;12.00;;
5058;SDS011;2548;52.050;11.036;2023-06-22T13:20:32;20.03;;;10.87;;
5058;SDS011;2548;52.050;11.036;2023-06-22T13:22:59;12.27;;;11.23;;
5058;SDS011;2548;52.050;11.036;2023-06-22T13:25:27;16.23;;;11.40;;
5058;SDS011;2548;52.050;11.036;2023-06-22T13:27:54;13.57;;;11.70;;
5058;SDS011;2548;52.050;11.036;2023-06-22T13:30:22;15.00;;;11.20;;
5058;SDS011;2548;52.050;11.036;2023-06-22T13:32:51;12.10;;;11.10;;
5058;SDS011;2548;52.050;11.036;2023-06-22T13:35:19;10.73;;;9.93;;
5058;SDS011;2548;52.050;11.036;2023-06-22T13:37:46;11.93;;;11.03;;
5058;SDS011;2548;52.050;11.036;2023-06-22T13:40:14;11.57;;;10.70;;
5058;SDS011;2548;52.050;11.036;2023-06-22T13:42:42;11.93;;;10.80;;
5058;SDS011;2548;52.050;11.036;2023-06-22T13:45:10;16.80;;;10.67;;
5058;SDS011;2548;52.050;11.036;2023-06-22T13:47:40;12.90;;;11.67;;
5058;SDS011;2548;52.050;11.036;2023-06-22T13:50:12;11.57;;;10.57;;
5058;SDS011;2548;52.050;11.036;2023-06-22T13:52:40;12.50;;;11.30;;
5058;SDS011;2548;52.050;11.036;2023-06-22T13:55:14;10.90;;;9.80;;
5058;SDS011;2548;52.050;11.036;2023-06-22T13:57:42;11.73;;;10.83;;
5058;SDS011;2548;52.050;11.036;2023-06-22T14:00:10;11.03;;;10.10;;
5058;SDS011;2548;52.050;11.036;2023-06-22T14:02:39;11.00;;;10.13;;
5058;SDS011;2548;52.050;11.036;2023-06-22T14:05:11;10.57;;;9.80;;
5058;SDS011;2548;52.050;11.036;2023-06-22T14:07:41;10.30;;;9.60;;
5058;SDS011;2548;52.050;11.036;2023-06-22T14:10:09;11.03;;;9.53;;
5058;SDS011;2548;52.050;11.036;2023-06-22T14:12:45;9.93;;;9.10;;
5058;SDS011;2548;52.050;11.036;2023-06-22T14:15:16;10.87;;;10.03;;
5058;SDS011;2548;52.050;11.036;2023-06-22T14:17:43;16.90;;;10.90;;
5058;SDS011;2548;52.050;11.036;2023-06-22T14:20:13;11.30;;;10.27;;
5058;SDS011;2548;52.050;11.036;2023-06-22T14:22:43;11.10;;;10.20;;
5058;SDS011;2548;52.050;11.036;2023-06-22T14:25:14;11.87;;;10.87;;
5058;SDS011;2548;52.050;11.036;2023-06-22T14:27:42;11.93;;;10.83;;
5058;SDS011;2548;52.050;11.036;2023-06-22T14:30:10;12.93;;;11.93;;
5058;SDS011;2548;52.050;11.036;2023-06-22T14:32:42;12.17;;;10.87;;
5058;SDS011;2548;52.050;11.036;2023-06-22T14:35:10;10.70;;;9.80;;
5058;SDS011;2548;52.050;11.036;2023-06-22T14:37:39;11.70;;;10.13;;
5058;SDS011;2548;52.050;11.036;2023-06-22T14:40:07;11.70;;;10.70;;
5058;SDS011;2548;52.050;11.036;2023-06-22T14:42:39;12.90;;;11.80;;
5058;SDS011;2548;52.050;11.036;2023-06-22T14:45:07;12.97;;;11.97;;
5058;SDS011;2548;52.050;11.036;2023-06-22T14:47:34;12.00;;;11.10;;
5058;SDS011;2548;52.050;11.036;2023-06-22T14:50:02;11.63;;;10.50;;
5058;SDS011;2548;52.050;11.036;2023-06-22T14:52:32;11.30;;;10.40;;